GCTS Airport Information

Runway Information
Runway 08 Length 10499 ft width 148 ft
Elevation 187 ft Threshold 0 ft Heading 69
Runway 26 Length 10499 ft Width 148 ft
Elevation 209 ft Threshold 0 ft Heading 249
Airport Frequencies
Type APP Name APP Frequency 120.3 MHZ
Type ATIS Name ATIS Frequency 118.675 MHZ
Type GND Name GND Frequency 121.9 MHZ
Type TWR Name TWR Frequency 119 MHZ
Airport Navaids
Type NDB Name Tenerife Sur Frequency 317 KHZ
Type VOR-DME Name Tenerife Sur Frequency 116400 KHZ
Airport Weather Information & NOTAM

Deprecated: The each() function is deprecated. This message will be suppressed on further calls in /home/aerocargo/public_html/lib/functions.php on line 165
ADDS - METARS form results

(2309 UTC 16 January 2021)
Data provider http://aviationweather.gov/metar/data/
 
METAR text: GCTS 162300Z 03007KT 9999 FEW030 16/08 Q1025 NOSIG
Conditions at: GCTS (TENERIFE SUR/REI, ES) observed 2300 UTC 16 January 2021
Temperature: 16.0°C (61°F)
Dewpoint: 8.0°C (46°F) [RH = 59%]
Pressure (altimeter): 30.27 inches Hg (1025.0 mb)
Winds: from the NNE (30 degrees) at 8 MPH (7 knots; 3.6 m/s)
Visibility: 6 or more miles (10+ km)
Ceiling: at least 12,000 feet AGL
Clouds: few clouds at 3000 feet AGL
Weather: no significant weather observed at this time

METAR text: GCTS 162230Z 01009KT 9999 FEW030 16/08 Q1026 NOSIG
Conditions at: GCTS (TENERIFE SUR/REI, ES) observed 2230 UTC 16 January 2021
Temperature: 16.0°C (61°F)
Dewpoint: 8.0°C (46°F) [RH = 59%]
Pressure (altimeter): 30.30 inches Hg (1026.0 mb)
Winds: from the N (10 degrees) at 10 MPH (9 knots; 4.6 m/s)
Visibility: 6 or more miles (10+ km)
Ceiling: at least 12,000 feet AGL
Clouds: few clouds at 3000 feet AGL
Weather: no significant weather observed at this time

Forecast for: GCTS (TENERIFE SUR/REI, ES)
Text: TAF GCTS 162000Z 1621/1721 06015KT 9999 SCT030 TX22/1714Z TN15/1707Z
Forecast period: 2100 UTC 16 January 2021 to 2100 UTC 17 January 2021
Forecast type: FROM: standard forecast or significant change
Winds: from the ENE (60 degrees) at 17 MPH (15 knots; 7.7 m/s)
Visibility: 6 or more miles (10+ km)
Ceiling: at least 12,000 feet AGL
Clouds: scattered clouds at 3000 feet AGL
Weather: no significant weather forecast for this period